sensor_id;sensor_type;location;lat;lon;timestamp;pressure;altitude;pressure_sealevel;temperature;humidity
43125;BME280;49182;50.788;7.318;2023-04-21T00:00:33;100626.59;;;7.72;92.11
43125;BME280;49182;50.788;7.318;2023-04-21T00:03:02;100623.03;;;7.73;92.18
43125;BME280;49182;50.788;7.318;2023-04-21T00:05:29;100629.13;;;7.74;92.04
43125;BME280;49182;50.788;7.318;2023-04-21T00:07:55;100623.03;;;7.73;91.76
43125;BME280;49182;50.788;7.318;2023-04-21T00:10:22;100622.81;;;7.77;92.70
43125;BME280;49182;50.788;7.318;2023-04-21T00:12:48;100615.25;;;7.72;92.01
43125;BME280;49182;50.788;7.318;2023-04-21T00:15:15;100608.44;;;7.69;92.08
43125;BME280;49182;50.788;7.318;2023-04-21T00:17:42;100607.72;;;7.67;92.38
43125;BME280;49182;50.788;7.318;2023-04-21T00:20:14;100616.44;;;7.68;92.36
43125;BME280;49182;50.788;7.318;2023-04-21T00:22:41;100610.69;;;7.63;92.73
43125;BME280;49182;50.788;7.318;2023-04-21T00:25:08;100602.44;;;7.56;93.01
43125;BME280;49182;50.788;7.318;2023-04-21T00:27:35;100597.41;;;7.53;93.47
43125;BME280;49182;50.788;7.318;2023-04-21T00:30:03;100569.56;;;7.40;93.25
43125;BME280;49182;50.788;7.318;2023-04-21T00:32:31;100591.56;;;7.50;93.51
43125;BME280;49182;50.788;7.318;2023-04-21T00:34:57;100586.88;;;7.42;93.87
43125;BME280;49182;50.788;7.318;2023-04-21T00:37:25;100604.59;;;7.51;93.88
43125;BME280;49182;50.788;7.318;2023-04-21T00:39:52;100604.09;;;7.46;94.02
43125;BME280;49182;50.788;7.318;2023-04-21T00:42:18;100597.84;;;7.47;94.49
43125;BME280;49182;50.788;7.318;2023-04-21T00:44:45;100599.91;;;7.44;95.18
43125;BME280;49182;50.788;7.318;2023-04-21T00:47:12;100602.53;;;7.44;95.49
43125;BME280;49182;50.788;7.318;2023-04-21T00:49:39;100584.00;;;7.34;95.48
43125;BME280;49182;50.788;7.318;2023-04-21T00:52:05;100596.03;;;7.37;95.61
43125;BME280;49182;50.788;7.318;2023-04-21T00:54:34;100582.19;;;7.35;96.02
43125;BME280;49182;50.788;7.318;2023-04-21T00:57:01;100578.84;;;7.32;96.10
43125;BME280;49182;50.788;7.318;2023-04-21T00:59:29;100581.47;;;7.32;95.97
43125;BME280;49182;50.788;7.318;2023-04-21T01:01:56;100574.44;;;7.33;95.77
43125;BME280;49182;50.788;7.318;2023-04-21T01:04:22;100578.13;;;7.30;95.64
43125;BME280;49182;50.788;7.318;2023-04-21T01:06:49;100582.63;;;7.28;95.52
43125;BME280;49182;50.788;7.318;2023-04-21T01:09:16;100582.03;;;7.25;95.63
43125;BME280;49182;50.788;7.318;2023-04-21T01:12:00;100582.28;;;7.22;94.96
43125;BME280;49182;50.788;7.318;2023-04-21T01:14:27;100579.97;;;7.17;95.02
43125;BME280;49182;50.788;7.318;2023-04-21T01:16:54;100582.00;;;7.14;94.35
43125;BME280;49182;50.788;7.318;2023-04-21T01:19:22;100582.34;;;7.09;94.02
43125;BME280;49182;50.788;7.318;2023-04-21T01:21:50;100587.81;;;7.06;94.03
43125;BME280;49182;50.788;7.318;2023-04-21T01:24:16;100542.91;;;6.74;93.93
43125;BME280;49182;50.788;7.318;2023-04-21T01:26:43;100594.34;;;7.01;94.21
43125;BME280;49182;50.788;7.318;2023-04-21T01:29:10;100599.94;;;6.96;94.35
43125;BME280;49182;50.788;7.318;2023-04-21T01:31:36;100588.94;;;6.91;93.60
43125;BME280;49182;50.788;7.318;2023-04-21T01:34:03;100605.91;;;6.98;94.05
43125;BME280;49182;50.788;7.318;2023-04-21T01:36:30;100603.28;;;6.98;94.03
43125;BME280;49182;50.788;7.318;2023-04-21T01:38:58;100607.56;;;6.99;94.02
43125;BME280;49182;50.788;7.318;2023-04-21T01:41:25;100605.06;;;6.98;94.01
43125;BME280;49182;50.788;7.318;2023-04-21T01:43:53;100609.16;;;7.02;94.19
43125;BME280;49182;50.788;7.318;2023-04-21T01:46:19;100595.00;;;6.91;94.50
43125;BME280;49182;50.788;7.318;2023-04-21T01:48:46;100609.25;;;7.00;94.04
43125;BME280;49182;50.788;7.318;2023-04-21T01:51:13;100610.31;;;6.98;94.81
43125;BME280;49182;50.788;7.318;2023-04-21T01:53:39;100606.13;;;6.95;94.44
43125;BME280;49182;50.788;7.318;2023-04-21T01:56:12;100610.53;;;6.95;94.49
43125;BME280;49182;50.788;7.318;2023-04-21T01:58:39;100610.53;;;6.95;94.76
43125;BME280;49182;50.788;7.318;2023-04-21T02:01:06;100608.75;;;6.95;95.25
43125;BME280;49182;50.788;7.318;2023-04-21T02:03:34;100612.44;;;6.93;94.97
43125;BME280;49182;50.788;7.318;2023-04-21T02:06:01;100597.88;;;6.88;95.08
43125;BME280;49182;50.788;7.318;2023-04-21T02:08:28;100601.34;;;6.89;95.07
43125;BME280;49182;50.788;7.318;2023-04-21T02:10:55;100605.75;;;6.88;94.89
43125;BME280;49182;50.788;7.318;2023-04-21T02:13:23;100597.75;;;6.90;94.85
43125;BME280;49182;50.788;7.318;2023-04-21T02:15:49;100602.06;;;6.91;95.51
43125;BME280;49182;50.788;7.318;2023-04-21T02:18:31;100577.53;;;6.79;95.43
43125;BME280;49182;50.788;7.318;2023-04-21T02:20:58;100589.50;;;6.83;95.32
43125;BME280;49182;50.788;7.318;2023-04-21T02:23:25;100596.88;;;6.78;95.62
43125;BME280;49182;50.788;7.318;2023-04-21T02:25:53;100603.25;;;6.74;95.83
43125;BME280;49182;50.788;7.318;2023-04-21T02:28:20;100600.88;;;6.71;95.78
43125;BME280;49182;50.788;7.318;2023-04-21T02:30:47;100597.75;;;6.66;96.10
43125;BME280;49182;50.788;7.318;2023-04-21T02:33:15;100596.66;;;6.69;95.66
43125;BME280;49182;50.788;7.318;2023-04-21T02:35:42;100597.75;;;6.66;95.47
43125;BME280;49182;50.788;7.318;2023-04-21T02:38:09;100597.34;;;6.60;95.38
43125;BME280;49182;50.788;7.318;2023-04-21T02:40:35;100592.41;;;6.55;95.16
43125;BME280;49182;50.788;7.318;2023-04-21T02:43:02;100596.31;;;6.49;95.31
43125;BME280;49182;50.788;7.318;2023-04-21T02:45:30;100605.44;;;6.44;95.49
43125;BME280;49182;50.788;7.318;2023-04-21T02:47:58;100608.16;;;6.42;95.19
43125;BME280;49182;50.788;7.318;2023-04-21T02:50:24;100607.56;;;6.39;95.29
43125;BME280;49182;50.788;7.318;2023-04-21T02:52:51;100604.09;;;6.38;94.93
43125;BME280;49182;50.788;7.318;2023-04-21T02:55:18;100604.19;;;6.37;95.64
43125;BME280;49182;50.788;7.318;2023-04-21T02:57:45;100606.94;;;6.35;95.50
43125;BME280;49182;50.788;7.318;2023-04-21T03:00:12;100603.69;;;6.32;96.13
43125;BME280;49182;50.788;7.318;2023-04-21T03:02:39;100605.56;;;6.30;95.38
43125;BME280;49182;50.788;7.318;2023-04-21T03:05:07;100609.03;;;6.30;96.28
43125;BME280;49182;50.788;7.318;2023-04-21T03:07:34;100602.94;;;6.30;97.11
43125;BME280;49182;50.788;7.318;2023-04-21T03:10:03;100609.16;;;6.29;96.57
43125;BME280;49182;50.788;7.318;2023-04-21T03:12:30;100611.38;;;6.22;96.94
43125;BME280;49182;50.788;7.318;2023-04-21T03:14:56;100615.13;;;6.18;98.19
43125;BME280;49182;50.788;7.318;2023-04-21T03:17:23;100591.53;;;6.05;98.24
43125;BME280;49182;50.788;7.318;2023-04-21T03:19:50;100608.84;;;6.21;98.46
43125;BME280;49182;50.788;7.318;2023-04-21T03:22:18;100621.34;;;6.17;98.75
43125;BME280;49182;50.788;7.318;2023-04-21T03:24:45;100612.63;;;6.17;98.58
43125;BME280;49182;50.788;7.318;2023-04-21T03:27:11;100619.75;;;6.15;99.38
43125;BME280;49182;50.788;7.318;2023-04-21T03:29:38;100614.72;;;6.12;99.17
43125;BME280;49182;50.788;7.318;2023-04-21T03:32:05;100607.81;;;6.11;99.91
43125;BME280;49182;50.788;7.318;2023-04-21T03:34:32;100606.22;;;6.08;100.00
43125;BME280;49182;50.788;7.318;2023-04-21T03:37:02;100616.72;;;6.08;99.98
43125;BME280;49182;50.788;7.318;2023-04-21T03:39:30;100610.72;;;6.06;99.58
43125;BME280;49182;50.788;7.318;2023-04-21T03:41:57;100614.53;;;6.02;99.96
43125;BME280;49182;50.788;7.318;2023-04-21T03:44:24;100611.16;;;6.00;98.89
43125;BME280;49182;50.788;7.318;2023-04-21T03:46:52;100608.66;;;5.98;98.30
43125;BME280;49182;50.788;7.318;2023-04-21T03:49:20;100606.34;;;5.94;99.08
43125;BME280;49182;50.788;7.318;2023-04-21T03:51:47;100596.03;;;5.78;97.97
43125;BME280;49182;50.788;7.318;2023-04-21T03:54:13;100613.03;;;5.85;98.58
43125;BME280;49182;50.788;7.318;2023-04-21T03:56:41;100608.91;;;5.81;98.86
43125;BME280;49182;50.788;7.318;2023-04-21T03:59:08;100613.53;;;5.78;99.01
43125;BME280;49182;50.788;7.318;2023-04-21T04:01:35;100586.81;;;5.60;99.40
43125;BME280;49182;50.788;7.318;2023-04-21T04:04:01;100608.31;;;5.78;99.01
43125;BME280;49182;50.788;7.318;2023-04-21T04:06:28;100608.81;;;5.70;98.71
43125;BME280;49182;50.788;7.318;2023-04-21T04:08:55;100603.88;;;5.65;99.01
43125;BME280;49182;50.788;7.318;2023-04-21T04:11:22;100604.91;;;5.63;98.84
43125;BME280;49182;50.788;7.318;2023-04-21T04:13:49;100589.94;;;5.52;99.07
43125;BME280;49182;50.788;7.318;2023-04-21T04:16:16;100607.66;;;5.61;99.46
43125;BME280;49182;50.788;7.318;2023-04-21T04:18:43;100607.34;;;5.53;99.52
43125;BME280;49182;50.788;7.318;2023-04-21T04:21:10;100555.44;;;5.20;100.00
43125;BME280;49182;50.788;7.318;2023-04-21T04:23:36;100610.97;;;5.51;100.00
43125;BME280;49182;50.788;7.318;2023-04-21T04:26:03;100612.97;;;5.47;99.99
43125;BME280;49182;50.788;7.318;2023-04-21T04:28:30;100603.94;;;5.39;100.00
43125;BME280;49182;50.788;7.318;2023-04-21T04:30:58;100597.69;;;5.41;99.91
43125;BME280;49182;50.788;7.318;2023-04-21T04:33:24;100611.38;;;5.45;100.00
43125;BME280;49182;50.788;7.318;2023-04-21T04:35:51;100610.44;;;5.46;100.00
43125;BME280;49182;50.788;7.318;2023-04-21T04:38:17;100610.66;;;5.43;100.00
43125;BME280;49182;50.788;7.318;2023-04-21T04:40:44;100607.09;;;5.44;100.00
43125;BME280;49182;50.788;7.318;2023-04-21T04:43:11;100587.78;;;5.32;100.00
43125;BME280;49182;50.788;7.318;2023-04-21T04:45:37;100594.31;;;5.39;100.00
43125;BME280;49182;50.788;7.318;2023-04-21T04:48:05;100602.16;;;5.39;100.00
43125;BME280;49182;50.788;7.318;2023-04-21T04:50:32;100618.13;;;5.49;100.00
43125;BME280;49182;50.788;7.318;2023-04-21T04:52:59;100615.38;;;5.50;100.00
43125;BME280;49182;50.788;7.318;2023-04-21T04:55:25;100596.00;;;5.40;100.00
43125;BME280;49182;50.788;7.318;2023-04-21T04:57:52;100609.19;;;5.51;100.00
43125;BME280;49182;50.788;7.318;2023-04-21T05:00:19;100618.44;;;5.57;100.00
43125;BME280;49182;50.788;7.318;2023-04-21T05:02:45;100623.66;;;5.57;100.00
43125;BME280;49182;50.788;7.318;2023-04-21T05:05:13;100619.50;;;5.54;100.00
43125;BME280;49182;50.788;7.318;2023-04-21T05:07:40;100619.50;;;5.54;100.00
43125;BME280;49182;50.788;7.318;2023-04-21T05:10:07;100612.47;;;5.55;100.00
43125;BME280;49182;50.788;7.318;2023-04-21T05:12:34;100588.22;;;5.39;100.00
43125;BME280;49182;50.788;7.318;2023-04-21T05:15:00;100619.28;;;5.57;98.76
43125;BME280;49182;50.788;7.318;2023-04-21T05:17:27;100610.94;;;5.38;99.85
43125;BME280;49182;50.788;7.318;2023-04-21T05:19:53;100629.41;;;5.49;100.00
43125;BME280;49182;50.788;7.318;2023-04-21T05:22:21;100622.69;;;5.45;100.00
43125;BME280;49182;50.788;7.318;2023-04-21T05:24:48;100628.78;;;5.46;100.00
43125;BME280;49182;50.788;7.318;2023-04-21T05:27:14;100621.31;;;5.40;100.00
43125;BME280;49182;50.788;7.318;2023-04-21T05:29:41;100621.53;;;5.37;100.00
43125;BME280;49182;50.788;7.318;2023-04-21T05:32:08;100629.28;;;5.38;100.00
43125;BME280;49182;50.788;7.318;2023-04-21T05:34:35;100621.31;;;5.40;100.00
43125;BME280;49182;50.788;7.318;2023-04-21T05:37:01;100622.16;;;5.40;100.00
43125;BME280;49182;50.788;7.318;2023-04-21T05:39:29;100621.53;;;5.37;99.89
43125;BME280;49182;50.788;7.318;2023-04-21T05:41:56;100628.66;;;5.35;100.00
43125;BME280;49182;50.788;7.318;2023-04-21T05:44:22;100627.81;;;5.34;100.00
43125;BME280;49182;50.788;7.318;2023-04-21T05:46:49;100629.06;;;5.28;100.00
43125;BME280;49182;50.788;7.318;2023-04-21T05:49:16;100622.66;;;5.33;100.00
43125;BME280;49182;50.788;7.318;2023-04-21T05:51:42;100627.72;;;5.36;100.00
43125;BME280;49182;50.788;7.318;2023-04-21T05:54:09;100612.28;;;5.31;100.00
43125;BME280;49182;50.788;7.318;2023-04-21T05:56:37;100629.63;;;5.46;100.00
43125;BME280;49182;50.788;7.318;2023-04-21T05:59:03;100630.38;;;5.48;100.00
43125;BME280;49182;50.788;7.318;2023-04-21T06:01:30;100636.22;;;5.52;100.00
43125;BME280;49182;50.788;7.318;2023-04-21T06:03:56;100631.00;;;5.52;100.00
43125;BME280;49182;50.788;7.318;2023-04-21T06:06:24;100630.69;;;5.56;99.98
43125;BME280;49182;50.788;7.318;2023-04-21T06:08:51;100633.41;;;5.55;100.00
43125;BME280;49182;50.788;7.318;2023-04-21T06:11:18;100629.56;;;5.60;98.90
43125;BME280;49182;50.788;7.318;2023-04-21T06:13:46;100630.59;;;5.58;99.95
43125;BME280;49182;50.788;7.318;2023-04-21T06:16:12;100618.44;;;5.57;100.00
43125;BME280;49182;50.788;7.318;2023-04-21T06:18:39;100624.75;;;5.67;100.00
43125;BME280;49182;50.788;7.318;2023-04-21T06:21:06;100627.78;;;5.74;100.00
43125;BME280;49182;50.788;7.318;2023-04-21T06:23:32;100617.94;;;5.77;99.87
43125;BME280;49182;50.788;7.318;2023-04-21T06:25:59;100626.63;;;5.78;99.81
43125;BME280;49182;50.788;7.318;2023-04-21T06:28:26;100610.41;;;5.73;100.00
43125;BME280;49182;50.788;7.318;2023-04-21T06:30:54;100621.31;;;5.79;100.00
43125;BME280;49182;50.788;7.318;2023-04-21T06:33:20;100614.06;;;5.83;100.00
43125;BME280;49182;50.788;7.318;2023-04-21T06:35:47;100614.63;;;5.88;100.00
43125;BME280;49182;50.788;7.318;2023-04-21T06:38:14;100629.06;;;5.93;100.00
43125;BME280;49182;50.788;7.318;2023-04-21T06:40:40;100625.94;;;6.01;100.00
43125;BME280;49182;50.788;7.318;2023-04-21T06:43:07;100631.91;;;6.16;100.00
43125;BME280;49182;50.788;7.318;2023-04-21T06:45:34;100628.88;;;6.22;99.13
43125;BME280;49182;50.788;7.318;2023-04-21T06:48:05;100620.50;;;6.29;99.95
43125;BME280;49182;50.788;7.318;2023-04-21T06:50:31;100613.13;;;6.34;99.50
43125;BME280;49182;50.788;7.318;2023-04-21T06:52:58;100614.06;;;6.46;99.27
43125;BME280;49182;50.788;7.318;2023-04-21T06:55:25;100610.06;;;6.53;98.04
43125;BME280;49182;50.788;7.318;2023-04-21T06:57:51;100599.66;;;6.52;97.62
43125;BME280;49182;50.788;7.318;2023-04-21T07:00:18;100607.59;;;6.63;98.19
43125;BME280;49182;50.788;7.318;2023-04-21T07:02:45;100610.13;;;6.64;98.58
43125;BME280;49182;50.788;7.318;2023-04-21T07:05:13;100608.84;;;6.70;98.65
43125;BME280;49182;50.788;7.318;2023-04-21T07:07:39;100608.41;;;6.76;98.07
43125;BME280;49182;50.788;7.318;2023-04-21T07:10:07;100619.38;;;6.94;97.89
43125;BME280;49182;50.788;7.318;2023-04-21T07:12:34;100616.19;;;7.01;98.73
43125;BME280;49182;50.788;7.318;2023-04-21T07:15:00;100610.38;;;7.09;98.42
43125;BME280;49182;50.788;7.318;2023-04-21T07:17:27;100600.88;;;7.19;98.98
43125;BME280;49182;50.788;7.318;2023-04-21T07:19:53;100599.13;;;7.30;98.80
43125;BME280;49182;50.788;7.318;2023-04-21T07:22:21;100606.47;;;7.49;98.83
43125;BME280;49182;50.788;7.318;2023-04-21T07:24:48;100605.44;;;7.63;98.94
43125;BME280;49182;50.788;7.318;2023-04-21T07:27:15;100597.59;;;7.74;97.87
43125;BME280;49182;50.788;7.318;2023-04-21T07:29:41;100608.09;;;7.85;97.82
43125;BME280;49182;50.788;7.318;2023-04-21T07:32:08;100606.94;;;7.89;97.47
43125;BME280;49182;50.788;7.318;2023-04-21T07:34:34;100606.59;;;7.94;96.28
43125;BME280;49182;50.788;7.318;2023-04-21T07:37:01;100608.63;;;8.01;96.65
43125;BME280;49182;50.788;7.318;2023-04-21T07:39:29;100609.09;;;8.18;96.88
43125;BME280;49182;50.788;7.318;2023-04-21T07:41:56;100607.22;;;8.31;97.38
43125;BME280;49182;50.788;7.318;2023-04-21T07:44:22;100611.63;;;8.52;97.63
43125;BME280;49182;50.788;7.318;2023-04-21T07:46:49;100612.22;;;8.67;97.51
43125;BME280;49182;50.788;7.318;2023-04-21T07:49:15;100589.09;;;8.71;97.88
43125;BME280;49182;50.788;7.318;2023-04-21T07:51:42;100602.25;;;8.93;97.85
43125;BME280;49182;50.788;7.318;2023-04-21T07:54:08;100609.03;;;9.07;96.98
43125;BME280;49182;50.788;7.318;2023-04-21T07:56:36;100604.16;;;9.23;96.41
43125;BME280;49182;50.788;7.318;2023-04-21T07:59:03;100604.84;;;9.36;95.38
43125;BME280;49182;50.788;7.318;2023-04-21T08:01:29;100602.25;;;9.46;95.28
43125;BME280;49182;50.788;7.318;2023-04-21T08:03:56;100596.69;;;9.60;94.66
43125;BME280;49182;50.788;7.318;2023-04-21T08:06:23;100600.09;;;9.71;94.57
43125;BME280;49182;50.788;7.318;2023-04-21T08:08:49;100593.91;;;9.82;94.89
43125;BME280;49182;50.788;7.318;2023-04-21T08:11:16;100590.09;;;9.96;95.08
43125;BME280;49182;50.788;7.318;2023-04-21T08:13:44;100592.41;;;10.10;94.22
43125;BME280;49182;50.788;7.318;2023-04-21T08:16:10;100588.63;;;10.24;93.18
43125;BME280;49182;50.788;7.318;2023-04-21T08:18:37;100597.25;;;10.35;92.38
43125;BME280;49182;50.788;7.318;2023-04-21T08:21:04;100603.28;;;10.47;92.29
43125;BME280;49182;50.788;7.318;2023-04-21T08:23:30;100597.09;;;10.67;92.28
43125;BME280;49182;50.788;7.318;2023-04-21T08:25:58;100593.50;;;10.87;89.79
43125;BME280;49182;50.788;7.318;2023-04-21T08:28:24;100592.81;;;10.95;83.98
43125;BME280;49182;50.788;7.318;2023-04-21T08:30:52;100595.50;;;11.05;82.86
43125;BME280;49182;50.788;7.318;2023-04-21T08:33:19;100597.28;;;11.04;82.99
43125;BME280;49182;50.788;7.318;2023-04-21T08:35:45;100592.97;;;11.13;83.67
43125;BME280;49182;50.788;7.318;2023-04-21T08:38:28;100597.56;;;11.20;83.54
43125;BME280;49182;50.788;7.318;2023-04-21T08:40:57;100553.19;;;11.14;84.17
43125;BME280;49182;50.788;7.318;2023-04-21T08:43:24;100605.06;;;11.63;83.51
43125;BME280;49182;50.788;7.318;2023-04-21T08:45:52;100588.94;;;11.76;80.46
43125;BME280;49182;50.788;7.318;2023-04-21T08:48:20;100600.88;;;11.80;81.17
43125;BME280;49182;50.788;7.318;2023-04-21T08:50:48;100590.28;;;11.90;79.81
43125;BME280;49182;50.788;7.318;2023-04-21T08:53:15;100593.47;;;11.93;77.92
43125;BME280;49182;50.788;7.318;2023-04-21T08:55:42;100590.28;;;11.90;77.55
43125;BME280;49182;50.788;7.318;2023-04-21T08:58:09;100589.16;;;12.02;79.10
43125;BME280;49182;50.788;7.318;2023-04-21T09:00:35;100597.19;;;12.10;77.26
43125;BME280;49182;50.788;7.318;2023-04-21T09:03:04;100598.19;;;12.09;78.53
43125;BME280;49182;50.788;7.318;2023-04-21T09:05:42;100578.06;;;12.16;79.12
43125;BME280;49182;50.788;7.318;2023-04-21T09:08:10;100584.56;;;12.31;79.74
43125;BME280;49182;50.788;7.318;2023-04-21T09:10:43;100584.50;;;12.41;78.30
43125;BME280;49182;50.788;7.318;2023-04-21T09:13:10;100589.00;;;12.40;76.96
43125;BME280;49182;50.788;7.318;2023-04-21T09:15:38;100581.19;;;12.39;77.50
43125;BME280;49182;50.788;7.318;2023-04-21T09:18:12;100580.22;;;12.40;77.99
43125;BME280;49182;50.788;7.318;2023-04-21T09:20:39;100571.53;;;12.47;78.93
43125;BME280;49182;50.788;7.318;2023-04-21T09:23:06;100574.72;;;12.51;77.99
43125;BME280;49182;50.788;7.318;2023-04-21T09:25:33;100558.84;;;12.51;76.35
43125;BME280;49182;50.788;7.318;2023-04-21T09:28:00;100575.75;;;12.68;74.19
43125;BME280;49182;50.788;7.318;2023-04-21T09:30:27;100571.97;;;12.70;76.45
43125;BME280;49182;50.788;7.318;2023-04-21T09:32:55;100555.91;;;12.72;77.51
43125;BME280;49182;50.788;7.318;2023-04-21T09:35:26;100560.25;;;12.90;76.64
43125;BME280;49182;50.788;7.318;2023-04-21T09:37:53;100570.31;;;13.05;75.77
43125;BME280;49182;50.788;7.318;2023-04-21T09:40:20;100564.75;;;13.25;75.94
43125;BME280;49182;50.788;7.318;2023-04-21T09:42:46;100562.78;;;13.45;75.07
43125;BME280;49182;50.788;7.318;2023-04-21T09:45:13;100556.13;;;13.67;72.28
43125;BME280;49182;50.788;7.318;2023-04-21T09:47:43;100554.19;;;13.77;73.62
43125;BME280;49182;50.788;7.318;2023-04-21T09:50:14;100551.94;;;13.90;74.09
43125;BME280;49182;50.788;7.318;2023-04-21T09:52:54;100549.84;;;14.02;74.63
43125;BME280;49182;50.788;7.318;2023-04-21T09:55:23;100550.78;;;14.18;73.15
43125;BME280;49182;50.788;7.318;2023-04-21T09:57:51;100535.91;;;14.34;71.44
43125;BME280;49182;50.788;7.318;2023-04-21T10:00:25;100508.66;;;14.24;70.13
43125;BME280;49182;50.788;7.318;2023-04-21T10:02:52;100534.91;;;14.35;70.60
43125;BME280;49182;50.788;7.318;2023-04-21T10:05:19;100535.81;;;14.43;69.64
43125;BME280;49182;50.788;7.318;2023-04-21T10:07:47;100532.13;;;14.44;69.22
43125;BME280;49182;50.788;7.318;2023-04-21T10:10:20;100531.50;;;14.50;68.72
43125;BME280;49182;50.788;7.318;2023-04-21T10:12:48;100534.03;;;14.60;68.86
43125;BME280;49182;50.788;7.318;2023-04-21T10:15:28;100532.69;;;14.56;68.25
43125;BME280;49182;50.788;7.318;2023-04-21T10:18:10;100521.25;;;14.72;68.55
43125;BME280;49182;50.788;7.318;2023-04-21T10:20:49;100514.97;;;14.89;68.18
43125;BME280;49182;50.788;7.318;2023-04-21T10:23:28;100513.66;;;15.01;68.20
43125;BME280;49182;50.788;7.318;2023-04-21T10:26:02;100507.88;;;15.06;66.90
43125;BME280;49182;50.788;7.318;2023-04-21T10:28:39;100497.88;;;15.16;66.85
43125;BME280;49182;50.788;7.318;2023-04-21T10:31:20;100495.88;;;15.26;66.18
43125;BME280;49182;50.788;7.318;2023-04-21T10:34:13;100493.22;;;15.34;67.39
43125;BME280;49182;50.788;7.318;2023-04-21T10:37:11;100476.94;;;15.29;64.99
43125;BME280;49182;50.788;7.318;2023-04-21T10:39:53;100483.88;;;15.46;65.50
43125;BME280;49182;50.788;7.318;2023-04-21T10:42:27;100484.22;;;15.59;63.57
43125;BME280;49182;50.788;7.318;2023-04-21T10:45:10;100473.38;;;15.69;64.54
43125;BME280;49182;50.788;7.318;2023-04-21T10:47:43;100473.97;;;15.87;63.99
43125;BME280;49182;50.788;7.318;2023-04-21T10:50:19;100475.25;;;16.07;64.60
43125;BME280;49182;50.788;7.318;2023-04-21T10:52:54;100459.56;;;16.12;59.50
43125;BME280;49182;50.788;7.318;2023-04-21T10:55:24;100462.06;;;16.14;60.89
43125;BME280;49182;50.788;7.318;2023-04-21T10:57:53;100462.06;;;16.14;62.20
43125;BME280;49182;50.788;7.318;2023-04-21T11:00:21;100452.06;;;16.16;59.80
43125;BME280;49182;50.788;7.318;2023-04-21T11:02:54;100459.38;;;16.22;59.39
43125;BME280;49182;50.788;7.318;2023-04-21T11:05:33;100448.00;;;16.28;57.73
43125;BME280;49182;50.788;7.318;2023-04-21T11:08:05;100447.81;;;16.30;58.29
43125;BME280;49182;50.788;7.318;2023-04-21T11:10:47;100431.84;;;16.30;56.58
43125;BME280;49182;50.788;7.318;2023-04-21T11:13:15;100434.28;;;16.39;57.12
43125;BME280;49182;50.788;7.318;2023-04-21T11:15:55;100434.16;;;16.55;56.53
43125;BME280;49182;50.788;7.318;2023-04-21T11:18:31;100433.00;;;16.58;55.00
43125;BME280;49182;50.788;7.318;2023-04-21T11:21:06;100423.66;;;16.62;54.47
43125;BME280;49182;50.788;7.318;2023-04-21T11:23:32;100415.06;;;16.75;54.47
43125;BME280;49182;50.788;7.318;2023-04-21T11:25:59;100421.09;;;16.91;55.27
43125;BME280;49182;50.788;7.318;2023-04-21T11:28:27;100413.56;;;17.10;53.67
43125;BME280;49182;50.788;7.318;2023-04-21T11:30:53;100413.63;;;17.24;53.43
43125;BME280;49182;50.788;7.318;2023-04-21T11:33:20;100392.63;;;17.36;54.46
43125;BME280;49182;50.788;7.318;2023-04-21T11:35:48;100398.28;;;17.70;52.97
43125;BME280;49182;50.788;7.318;2023-04-21T11:38:14;100393.41;;;17.74;52.72
43125;BME280;49182;50.788;7.318;2023-04-21T11:40:45;100389.63;;;17.83;51.43
43125;BME280;49182;50.788;7.318;2023-04-21T11:43:12;100380.13;;;17.95;52.70
43125;BME280;49182;50.788;7.318;2023-04-21T11:45:40;100373.56;;;17.98;50.11
43125;BME280;49182;50.788;7.318;2023-04-21T11:48:13;100376.69;;;18.01;50.90
43125;BME280;49182;50.788;7.318;2023-04-21T11:50:46;100379.81;;;18.05;51.85
43125;BME280;49182;50.788;7.318;2023-04-21T11:53:13;100375.41;;;17.97;51.81
43125;BME280;49182;50.788;7.318;2023-04-21T11:55:41;100370.63;;;17.93;51.79
43125;BME280;49182;50.788;7.318;2023-04-21T11:58:08;100371.44;;;18.08;51.71
43125;BME280;49182;50.788;7.318;2023-04-21T12:00:35;100363.16;;;18.24;50.79
43125;BME280;49182;50.788;7.318;2023-04-21T12:03:07;100368.38;;;18.32;50.22
43125;BME280;49182;50.788;7.318;2023-04-21T12:05:35;100374.06;;;18.44;48.91
43125;BME280;49182;50.788;7.318;2023-04-21T12:08:02;100371.81;;;18.47;49.06
43125;BME280;49182;50.788;7.318;2023-04-21T12:10:28;100368.38;;;18.32;49.84
43125;BME280;49182;50.788;7.318;2023-04-21T12:12:55;100364.63;;;18.27;49.06
43125;BME280;49182;50.788;7.318;2023-04-21T12:15:22;100359.22;;;18.41;49.84
43125;BME280;49182;50.788;7.318;2023-04-21T12:17:50;100356.84;;;18.53;50.53
43125;BME280;49182;50.788;7.318;2023-04-21T12:20:19;100360.53;;;18.52;51.96
43125;BME280;49182;50.788;7.318;2023-04-21T12:22:47;100361.69;;;18.64;51.98
43125;BME280;49182;50.788;7.318;2023-04-21T12:25:14;100360.16;;;18.76;50.85
43125;BME280;49182;50.788;7.318;2023-04-21T12:27:47;100356.97;;;18.87;50.37
43125;BME280;49182;50.788;7.318;2023-04-21T12:30:13;100353.75;;;18.98;49.39
43125;BME280;49182;50.788;7.318;2023-04-21T12:32:40;100338.03;;;18.89;49.59
43125;BME280;49182;50.788;7.318;2023-04-21T12:35:08;100361.38;;;19.02;50.75
43125;BME280;49182;50.788;7.318;2023-04-21T12:37:36;100341.81;;;18.94;49.45
43125;BME280;49182;50.788;7.318;2023-04-21T12:40:03;100350.03;;;18.93;48.99
43125;BME280;49182;50.788;7.318;2023-04-21T12:42:30;100356.31;;;19.07;49.38
43125;BME280;49182;50.788;7.318;2023-04-21T12:44:57;100362.50;;;19.14;48.59
43125;BME280;49182;50.788;7.318;2023-04-21T12:47:23;100360.47;;;19.16;49.20
43125;BME280;49182;50.788;7.318;2023-04-21T12:49:50;100354.31;;;19.22;47.63
43125;BME280;49182;50.788;7.318;2023-04-21T12:52:16;100357.63;;;19.24;46.88
43125;BME280;49182;50.788;7.318;2023-04-21T12:54:44;100351.28;;;19.25;46.57
43125;BME280;49182;50.788;7.318;2023-04-21T12:57:11;100347.03;;;19.09;47.11
43125;BME280;49182;50.788;7.318;2023-04-21T12:59:38;100350.63;;;18.88;48.63